sensor_id;sensor_type;location;lat;lon;timestamp;temperature;humidity
2999;DHT22;1509;51.964;7.628;2023-07-13T00:01:27;18.00;99.90
2999;DHT22;1509;51.964;7.628;2023-07-13T00:03:53;18.20;99.90
2999;DHT22;1509;51.964;7.628;2023-07-13T00:06:19;18.40;99.90
2999;DHT22;1509;51.964;7.628;2023-07-13T00:08:46;18.00;99.90
2999;DHT22;1509;51.964;7.628;2023-07-13T00:11:13;18.00;99.90
2999;DHT22;1509;51.964;7.628;2023-07-13T00:13:39;18.30;99.90
2999;DHT22;1509;51.964;7.628;2023-07-13T00:16:06;17.90;99.90
2999;DHT22;1509;51.964;7.628;2023-07-13T00:18:32;17.80;99.90
2999;DHT22;1509;51.964;7.628;2023-07-13T00:20:58;17.80;99.90
2999;DHT22;1509;51.964;7.628;2023-07-13T00:23:35;17.80;99.90
2999;DHT22;1509;51.964;7.628;2023-07-13T00:26:03;17.60;99.90
2999;DHT22;1509;51.964;7.628;2023-07-13T00:28:28;18.10;99.90
2999;DHT22;1509;51.964;7.628;2023-07-13T00:30:54;17.80;99.90
2999;DHT22;1509;51.964;7.628;2023-07-13T00:33:20;17.80;99.90
2999;DHT22;1509;51.964;7.628;2023-07-13T00:35:45;17.70;99.90
2999;DHT22;1509;51.964;7.628;2023-07-13T00:38:11;17.70;99.90
2999;DHT22;1509;51.964;7.628;2023-07-13T00:40:37;17.60;99.90
2999;DHT22;1509;51.964;7.628;2023-07-13T00:43:09;17.60;99.90
2999;DHT22;1509;51.964;7.628;2023-07-13T00:48:11;17.60;99.90
2999;DHT22;1509;51.964;7.628;2023-07-13T00:50:40;17.90;99.90
2999;DHT22;1509;51.964;7.628;2023-07-13T00:53:07;17.50;99.90
2999;DHT22;1509;51.964;7.628;2023-07-13T00:55:34;17.50;99.90
2999;DHT22;1509;51.964;7.628;2023-07-13T00:58:00;17.30;99.90
2999;DHT22;1509;51.964;7.628;2023-07-13T01:00:29;17.30;99.90
2999;DHT22;1509;51.964;7.628;2023-07-13T01:02:57;17.30;99.90
2999;DHT22;1509;51.964;7.628;2023-07-13T01:05:23;17.10;99.90
2999;DHT22;1509;51.964;7.628;2023-07-13T01:07:50;17.20;99.90
2999;DHT22;1509;51.964;7.628;2023-07-13T01:10:20;17.10;99.90
2999;DHT22;1509;51.964;7.628;2023-07-13T01:12:46;16.80;99.90
2999;DHT22;1509;51.964;7.628;2023-07-13T01:15:38;17.00;99.90
2999;DHT22;1509;51.964;7.628;2023-07-13T01:18:07;17.00;99.90
2999;DHT22;1509;51.964;7.628;2023-07-13T01:20:33;17.00;99.90
2999;DHT22;1509;51.964;7.628;2023-07-13T01:23:10;17.00;99.90
2999;DHT22;1509;51.964;7.628;2023-07-13T01:25:38;17.00;99.90
2999;DHT22;1509;51.964;7.628;2023-07-13T01:28:05;16.90;99.90
2999;DHT22;1509;51.964;7.628;2023-07-13T01:30:31;16.90;99.90
2999;DHT22;1509;51.964;7.628;2023-07-13T01:32:57;16.80;99.90
2999;DHT22;1509;51.964;7.628;2023-07-13T01:35:23;16.70;99.90
2999;DHT22;1509;51.964;7.628;2023-07-13T01:37:51;16.70;99.90
2999;DHT22;1509;51.964;7.628;2023-07-13T01:40:16;17.00;99.90
2999;DHT22;1509;51.964;7.628;2023-07-13T01:42:42;16.80;99.90
2999;DHT22;1509;51.964;7.628;2023-07-13T01:45:08;16.80;99.90
2999;DHT22;1509;51.964;7.628;2023-07-13T01:47:34;16.80;99.90
2999;DHT22;1509;51.964;7.628;2023-07-13T01:49:59;16.90;99.90
2999;DHT22;1509;51.964;7.628;2023-07-13T01:52:25;16.90;99.90
2999;DHT22;1509;51.964;7.628;2023-07-13T01:54:51;16.90;99.90
2999;DHT22;1509;51.964;7.628;2023-07-13T01:57:16;16.90;99.90
2999;DHT22;1509;51.964;7.628;2023-07-13T01:59:42;16.90;99.90
2999;DHT22;1509;51.964;7.628;2023-07-13T02:02:07;16.80;99.90
2999;DHT22;1509;51.964;7.628;2023-07-13T02:04:33;16.80;99.90
2999;DHT22;1509;51.964;7.628;2023-07-13T02:06:59;16.70;99.90
2999;DHT22;1509;51.964;7.628;2023-07-13T02:09:25;16.70;99.90
2999;DHT22;1509;51.964;7.628;2023-07-13T02:11:50;16.60;99.90
2999;DHT22;1509;51.964;7.628;2023-07-13T02:14:16;16.50;99.90
2999;DHT22;1509;51.964;7.628;2023-07-13T02:16:42;16.50;99.90
2999;DHT22;1509;51.964;7.628;2023-07-13T02:19:08;16.50;99.90
2999;DHT22;1509;51.964;7.628;2023-07-13T02:21:34;16.50;99.90
2999;DHT22;1509;51.964;7.628;2023-07-13T02:24:00;16.20;99.90
2999;DHT22;1509;51.964;7.628;2023-07-13T02:26:26;16.40;99.90
2999;DHT22;1509;51.964;7.628;2023-07-13T02:28:52;16.30;99.90
2999;DHT22;1509;51.964;7.628;2023-07-13T02:31:18;16.10;99.90
2999;DHT22;1509;51.964;7.628;2023-07-13T02:33:47;16.10;99.90
2999;DHT22;1509;51.964;7.628;2023-07-13T02:36:12;16.20;99.90
2999;DHT22;1509;51.964;7.628;2023-07-13T02:38:39;16.10;99.90
2999;DHT22;1509;51.964;7.628;2023-07-13T02:41:06;16.10;99.90
2999;DHT22;1509;51.964;7.628;2023-07-13T02:43:33;16.30;99.90
2999;DHT22;1509;51.964;7.628;2023-07-13T02:46:00;16.30;99.90
2999;DHT22;1509;51.964;7.628;2023-07-13T02:48:51;16.30;99.90
2999;DHT22;1509;51.964;7.628;2023-07-13T02:51:18;16.10;99.90
2999;DHT22;1509;51.964;7.628;2023-07-13T02:53:44;16.30;99.90
2999;DHT22;1509;51.964;7.628;2023-07-13T02:56:09;16.30;99.90
2999;DHT22;1509;51.964;7.628;2023-07-13T02:58:35;16.20;99.90
2999;DHT22;1509;51.964;7.628;2023-07-13T03:01:09;16.00;99.90
2999;DHT22;1509;51.964;7.628;2023-07-13T03:03:35;16.10;99.90
2999;DHT22;1509;51.964;7.628;2023-07-13T03:06:05;16.10;99.90
2999;DHT22;1509;51.964;7.628;2023-07-13T03:08:32;16.00;99.90
2999;DHT22;1509;51.964;7.628;2023-07-13T03:11:06;15.90;99.90
2999;DHT22;1509;51.964;7.628;2023-07-13T03:13:32;15.90;99.90
2999;DHT22;1509;51.964;7.628;2023-07-13T03:15:58;15.80;99.90
2999;DHT22;1509;51.964;7.628;2023-07-13T03:18:25;16.00;99.90
2999;DHT22;1509;51.964;7.628;2023-07-13T03:20:51;15.90;99.90
2999;DHT22;1509;51.964;7.628;2023-07-13T03:23:16;15.90;99.90
2999;DHT22;1509;51.964;7.628;2023-07-13T03:25:42;15.90;99.90
2999;DHT22;1509;51.964;7.628;2023-07-13T03:28:10;15.90;99.90
2999;DHT22;1509;51.964;7.628;2023-07-13T03:30:36;15.90;99.90
2999;DHT22;1509;51.964;7.628;2023-07-13T03:33:02;15.90;99.90
2999;DHT22;1509;51.964;7.628;2023-07-13T03:35:27;15.80;99.90
2999;DHT22;1509;51.964;7.628;2023-07-13T03:37:53;15.70;99.90
2999;DHT22;1509;51.964;7.628;2023-07-13T03:40:19;16.00;99.90
2999;DHT22;1509;51.964;7.628;2023-07-13T03:42:45;15.80;99.90
2999;DHT22;1509;51.964;7.628;2023-07-13T03:45:11;15.80;99.90
2999;DHT22;1509;51.964;7.628;2023-07-13T03:47:37;15.80;99.90
2999;DHT22;1509;51.964;7.628;2023-07-13T03:50:02;15.80;99.90
2999;DHT22;1509;51.964;7.628;2023-07-13T03:52:29;15.70;99.90
2999;DHT22;1509;51.964;7.628;2023-07-13T03:54:54;15.70;99.90
2999;DHT22;1509;51.964;7.628;2023-07-13T03:57:20;15.70;99.90
2999;DHT22;1509;51.964;7.628;2023-07-13T03:59:45;15.70;99.90
2999;DHT22;1509;51.964;7.628;2023-07-13T04:02:11;15.80;99.90
2999;DHT22;1509;51.964;7.628;2023-07-13T04:04:37;15.70;99.90
2999;DHT22;1509;51.964;7.628;2023-07-13T04:07:05;15.70;99.90
2999;DHT22;1509;51.964;7.628;2023-07-13T04:09:30;15.60;99.90
2999;DHT22;1509;51.964;7.628;2023-07-13T04:11:56;15.70;99.90
2999;DHT22;1509;51.964;7.628;2023-07-13T04:14:25;15.60;99.90
2999;DHT22;1509;51.964;7.628;2023-07-13T04:16:50;15.70;99.90
2999;DHT22;1509;51.964;7.628;2023-07-13T04:19:16;15.60;99.90
2999;DHT22;1509;51.964;7.628;2023-07-13T04:21:42;15.60;99.90
2999;DHT22;1509;51.964;7.628;2023-07-13T04:24:07;15.70;99.90
2999;DHT22;1509;51.964;7.628;2023-07-13T04:26:33;15.60;99.90
2999;DHT22;1509;51.964;7.628;2023-07-13T04:29:01;15.70;99.90
2999;DHT22;1509;51.964;7.628;2023-07-13T04:31:29;15.70;99.90
2999;DHT22;1509;51.964;7.628;2023-07-13T04:33:55;15.70;99.90
2999;DHT22;1509;51.964;7.628;2023-07-13T04:36:20;15.60;99.90
2999;DHT22;1509;51.964;7.628;2023-07-13T04:38:46;15.60;99.90
2999;DHT22;1509;51.964;7.628;2023-07-13T04:41:13;15.70;99.90
2999;DHT22;1509;51.964;7.628;2023-07-13T04:43:39;15.70;99.90
2999;DHT22;1509;51.964;7.628;2023-07-13T04:46:10;15.80;99.90
2999;DHT22;1509;51.964;7.628;2023-07-13T04:48:36;15.70;99.90
2999;DHT22;1509;51.964;7.628;2023-07-13T04:51:02;15.70;99.90
2999;DHT22;1509;51.964;7.628;2023-07-13T04:53:29;15.70;99.90
2999;DHT22;1509;51.964;7.628;2023-07-13T04:55:54;15.70;99.90
2999;DHT22;1509;51.964;7.628;2023-07-13T04:58:20;15.70;99.90
2999;DHT22;1509;51.964;7.628;2023-07-13T05:00:47;15.70;99.90
2999;DHT22;1509;51.964;7.628;2023-07-13T05:03:12;15.80;99.90
2999;DHT22;1509;51.964;7.628;2023-07-13T05:05:38;15.90;99.90
2999;DHT22;1509;51.964;7.628;2023-07-13T05:08:04;16.10;99.90
2999;DHT22;1509;51.964;7.628;2023-07-13T05:10:29;16.00;99.90
2999;DHT22;1509;51.964;7.628;2023-07-13T05:12:55;16.10;99.90
2999;DHT22;1509;51.964;7.628;2023-07-13T05:15:22;16.00;99.90
2999;DHT22;1509;51.964;7.628;2023-07-13T05:17:49;16.20;99.90
2999;DHT22;1509;51.964;7.628;2023-07-13T05:20:16;16.30;99.90
2999;DHT22;1509;51.964;7.628;2023-07-13T05:22:42;16.30;99.90
2999;DHT22;1509;51.964;7.628;2023-07-13T05:25:12;16.20;99.90
2999;DHT22;1509;51.964;7.628;2023-07-13T05:27:38;16.40;99.90
2999;DHT22;1509;51.964;7.628;2023-07-13T05:30:05;16.50;99.90
2999;DHT22;1509;51.964;7.628;2023-07-13T05:32:31;16.60;99.90
2999;DHT22;1509;51.964;7.628;2023-07-13T05:34:56;16.80;99.90
2999;DHT22;1509;51.964;7.628;2023-07-13T05:37:22;16.70;99.90
2999;DHT22;1509;51.964;7.628;2023-07-13T05:39:48;16.70;99.90
2999;DHT22;1509;51.964;7.628;2023-07-13T05:42:13;16.60;99.90
2999;DHT22;1509;51.964;7.628;2023-07-13T05:44:40;16.60;99.90
2999;DHT22;1509;51.964;7.628;2023-07-13T05:47:06;16.60;99.90
2999;DHT22;1509;51.964;7.628;2023-07-13T05:49:31;16.60;99.90
2999;DHT22;1509;51.964;7.628;2023-07-13T05:51:57;16.70;99.90
2999;DHT22;1509;51.964;7.628;2023-07-13T05:54:23;16.80;99.90
2999;DHT22;1509;51.964;7.628;2023-07-13T05:56:48;16.90;99.90
2999;DHT22;1509;51.964;7.628;2023-07-13T05:59:14;16.90;99.90
2999;DHT22;1509;51.964;7.628;2023-07-13T06:01:41;16.90;99.90
2999;DHT22;1509;51.964;7.628;2023-07-13T06:04:09;16.90;99.90
2999;DHT22;1509;51.964;7.628;2023-07-13T06:06:34;16.90;99.90
2999;DHT22;1509;51.964;7.628;2023-07-13T06:09:00;16.80;99.90
2999;DHT22;1509;51.964;7.628;2023-07-13T06:11:26;17.00;99.90
2999;DHT22;1509;51.964;7.628;2023-07-13T06:13:53;17.00;99.90
2999;DHT22;1509;51.964;7.628;2023-07-13T06:16:19;17.00;99.90
2999;DHT22;1509;51.964;7.628;2023-07-13T06:18:45;17.00;99.90
2999;DHT22;1509;51.964;7.628;2023-07-13T06:21:16;17.00;99.90
2999;DHT22;1509;51.964;7.628;2023-07-13T06:23:43;16.70;99.90
2999;DHT22;1509;51.964;7.628;2023-07-13T06:26:09;16.90;99.90
2999;DHT22;1509;51.964;7.628;2023-07-13T06:28:35;16.90;99.90
2999;DHT22;1509;51.964;7.628;2023-07-13T06:31:02;16.90;99.90
2999;DHT22;1509;51.964;7.628;2023-07-13T06:33:30;17.00;99.90
2999;DHT22;1509;51.964;7.628;2023-07-13T06:35:55;17.10;99.90
2999;DHT22;1509;51.964;7.628;2023-07-13T06:38:21;17.10;99.90
2999;DHT22;1509;51.964;7.628;2023-07-13T06:40:47;17.20;99.90
2999;DHT22;1509;51.964;7.628;2023-07-13T06:43:16;17.30;99.90
2999;DHT22;1509;51.964;7.628;2023-07-13T06:45:44;17.30;99.90
2999;DHT22;1509;51.964;7.628;2023-07-13T06:48:15;17.30;99.90
2999;DHT22;1509;51.964;7.628;2023-07-13T06:50:42;17.30;99.90
2999;DHT22;1509;51.964;7.628;2023-07-13T06:53:08;17.30;99.90
2999;DHT22;1509;51.964;7.628;2023-07-13T06:55:33;17.40;99.90
2999;DHT22;1509;51.964;7.628;2023-07-13T06:57:59;17.40;99.90
2999;DHT22;1509;51.964;7.628;2023-07-13T07:00:25;17.60;99.90
2999;DHT22;1509;51.964;7.628;2023-07-13T07:02:50;17.70;99.90
2999;DHT22;1509;51.964;7.628;2023-07-13T07:05:16;17.70;99.90
2999;DHT22;1509;51.964;7.628;2023-07-13T07:07:42;17.80;99.90
2999;DHT22;1509;51.964;7.628;2023-07-13T07:10:08;17.60;99.90
2999;DHT22;1509;51.964;7.628;2023-07-13T07:12:34;17.80;99.90
2999;DHT22;1509;51.964;7.628;2023-07-13T07:14:59;17.90;99.90
2999;DHT22;1509;51.964;7.628;2023-07-13T07:17:25;17.90;99.90
2999;DHT22;1509;51.964;7.628;2023-07-13T07:19:52;18.20;99.90
2999;DHT22;1509;51.964;7.628;2023-07-13T07:22:20;17.90;99.90
2999;DHT22;1509;51.964;7.628;2023-07-13T07:24:45;18.00;99.90
2999;DHT22;1509;51.964;7.628;2023-07-13T07:27:11;18.10;99.90
2999;DHT22;1509;51.964;7.628;2023-07-13T07:29:36;18.30;99.90
2999;DHT22;1509;51.964;7.628;2023-07-13T07:32:02;18.10;99.90
2999;DHT22;1509;51.964;7.628;2023-07-13T07:34:28;18.40;99.90
2999;DHT22;1509;51.964;7.628;2023-07-13T07:36:54;18.40;99.90
2999;DHT22;1509;51.964;7.628;2023-07-13T07:39:20;18.30;99.90
2999;DHT22;1509;51.964;7.628;2023-07-13T07:41:45;18.40;99.90
2999;DHT22;1509;51.964;7.628;2023-07-13T07:44:11;18.50;99.90
2999;DHT22;1509;51.964;7.628;2023-07-13T07:46:36;18.40;99.90
2999;DHT22;1509;51.964;7.628;2023-07-13T07:49:02;18.40;99.90
2999;DHT22;1509;51.964;7.628;2023-07-13T07:51:28;18.30;99.90
2999;DHT22;1509;51.964;7.628;2023-07-13T07:53:54;18.40;99.90
2999;DHT22;1509;51.964;7.628;2023-07-13T07:56:19;18.60;99.90
2999;DHT22;1509;51.964;7.628;2023-07-13T07:58:45;18.80;99.90
2999;DHT22;1509;51.964;7.628;2023-07-13T08:01:11;18.90;99.90
2999;DHT22;1509;51.964;7.628;2023-07-13T08:03:36;18.80;99.90
2999;DHT22;1509;51.964;7.628;2023-07-13T08:06:02;18.70;99.90
2999;DHT22;1509;51.964;7.628;2023-07-13T08:08:27;18.70;99.90
2999;DHT22;1509;51.964;7.628;2023-07-13T08:10:56;18.80;99.90
2999;DHT22;1509;51.964;7.628;2023-07-13T08:13:22;18.90;99.90
2999;DHT22;1509;51.964;7.628;2023-07-13T08:15:47;19.00;99.90
2999;DHT22;1509;51.964;7.628;2023-07-13T08:18:14;18.90;99.90
2999;DHT22;1509;51.964;7.628;2023-07-13T08:20:40;18.80;99.90
2999;DHT22;1509;51.964;7.628;2023-07-13T08:23:07;18.80;99.90
2999;DHT22;1509;51.964;7.628;2023-07-13T08:25:35;18.90;99.90
2999;DHT22;1509;51.964;7.628;2023-07-13T08:28:01;19.00;99.90
2999;DHT22;1509;51.964;7.628;2023-07-13T08:30:27;19.00;99.90
2999;DHT22;1509;51.964;7.628;2023-07-13T08:32:53;19.00;99.90
2999;DHT22;1509;51.964;7.628;2023-07-13T08:35:19;19.00;99.90
2999;DHT22;1509;51.964;7.628;2023-07-13T08:37:44;19.10;99.90
2999;DHT22;1509;51.964;7.628;2023-07-13T08:40:11;19.20;99.90
2999;DHT22;1509;51.964;7.628;2023-07-13T08:42:46;19.30;99.90
2999;DHT22;1509;51.964;7.628;2023-07-13T08:48:23;19.50;99.90
2999;DHT22;1509;51.964;7.628;2023-07-13T08:51:00;19.60;99.90
2999;DHT22;1509;51.964;7.628;2023-07-13T08:53:43;19.90;99.90
2999;DHT22;1509;51.964;7.628;2023-07-13T08:56:17;19.90;99.90
2999;DHT22;1509;51.964;7.628;2023-07-13T08:58:45;19.90;99.90
2999;DHT22;1509;51.964;7.628;2023-07-13T09:04:19;20.10;99.90
2999;DHT22;1509;51.964;7.628;2023-07-13T09:07:00;20.30;99.90
2999;DHT22;1509;51.964;7.628;2023-07-13T09:09:40;20.60;99.90
2999;DHT22;1509;51.964;7.628;2023-07-13T09:12:19;20.80;99.90
2999;DHT22;1509;51.964;7.628;2023-07-13T09:14:49;20.90;99.90
2999;DHT22;1509;51.964;7.628;2023-07-13T09:17:41;21.00;99.90
2999;DHT22;1509;51.964;7.628;2023-07-13T09:20:31;21.40;99.90
2999;DHT22;1509;51.964;7.628;2023-07-13T09:23:00;21.70;99.90
2999;DHT22;1509;51.964;7.628;2023-07-13T09:25:34;21.60;99.90
2999;DHT22;1509;51.964;7.628;2023-07-13T09:30:45;22.50;99.90
2999;DHT22;1509;51.964;7.628;2023-07-13T09:33:11;22.50;99.90
2999;DHT22;1509;51.964;7.628;2023-07-13T09:35:37;22.30;99.90
2999;DHT22;1509;51.964;7.628;2023-07-13T09:38:11;21.70;99.90
2999;DHT22;1509;51.964;7.628;2023-07-13T09:43:18;21.30;99.90
2999;DHT22;1509;51.964;7.628;2023-07-13T09:45:46;21.50;99.90
2999;DHT22;1509;51.964;7.628;2023-07-13T09:48:16;21.50;99.90
2999;DHT22;1509;51.964;7.628;2023-07-13T09:50:43;21.30;99.90
2999;DHT22;1509;51.964;7.628;2023-07-13T09:53:17;21.50;99.90
2999;DHT22;1509;51.964;7.628;2023-07-13T09:55:45;22.60;99.90
2999;DHT22;1509;51.964;7.628;2023-07-13T09:58:17;23.60;99.90
2999;DHT22;1509;51.964;7.628;2023-07-13T10:00:55;25.30;99.90
2999;DHT22;1509;51.964;7.628;2023-07-13T10:03:31;25.00;99.90
2999;DHT22;1509;51.964;7.628;2023-07-13T10:06:17;24.40;99.90
2999;DHT22;1509;51.964;7.628;2023-07-13T10:08:45;23.70;99.90
2999;DHT22;1509;51.964;7.628;2023-07-13T10:11:39;23.30;99.90
2999;DHT22;1509;51.964;7.628;2023-07-13T10:16:55;22.20;99.90
2999;DHT22;1509;51.964;7.628;2023-07-13T10:19:26;22.00;99.90
2999;DHT22;1509;51.964;7.628;2023-07-13T10:24:33;21.40;99.90
2999;DHT22;1509;51.964;7.628;2023-07-13T10:27:15;21.30;99.90
2999;DHT22;1509;51.964;7.628;2023-07-13T10:29:51;21.50;99.90
2999;DHT22;1509;51.964;7.628;2023-07-13T10:32:20;21.60;99.90
2999;DHT22;1509;51.964;7.628;2023-07-13T10:34:47;21.70;99.90
2999;DHT22;1509;51.964;7.628;2023-07-13T10:37:43;21.80;99.90
2999;DHT22;1509;51.964;7.628;2023-07-13T10:40:15;22.10;99.90
2999;DHT22;1509;51.964;7.628;2023-07-13T10:42:46;22.50;99.90
2999;DHT22;1509;51.964;7.628;2023-07-13T10:45:18;22.90;99.90
2999;DHT22;1509;51.964;7.628;2023-07-13T10:47:45;24.00;99.90
2999;DHT22;1509;51.964;7.628;2023-07-13T10:50:18;24.80;99.90
2999;DHT22;1509;51.964;7.628;2023-07-13T10:52:50;25.00;99.90
2999;DHT22;1509;51.964;7.628;2023-07-13T10:58:39;23.80;99.90
2999;DHT22;1509;51.964;7.628;2023-07-13T11:03:55;25.00;99.90
2999;DHT22;1509;51.964;7.628;2023-07-13T11:06:33;26.00;99.90
2999;DHT22;1509;51.964;7.628;2023-07-13T11:09:24;26.40;99.90
2999;DHT22;1509;51.964;7.628;2023-07-13T11:12:03;26.00;99.90
2999;DHT22;1509;51.964;7.628;2023-07-13T11:17:38;26.20;99.90
2999;DHT22;1509;51.964;7.628;2023-07-13T11:20:52;26.50;99.90
2999;DHT22;1509;51.964;7.628;2023-07-13T11:25:37;24.30;99.90
2999;DHT22;1509;51.964;7.628;2023-07-13T11:28:20;24.10;99.90
2999;DHT22;1509;51.964;7.628;2023-07-13T11:30:49;24.20;99.90
2999;DHT22;1509;51.964;7.628;2023-07-13T11:38:24;23.50;99.90
2999;DHT22;1509;51.964;7.628;2023-07-13T11:40:54;24.30;99.90
2999;DHT22;1509;51.964;7.628;2023-07-13T11:43:20;25.40;99.90
2999;DHT22;1509;51.964;7.628;2023-07-13T11:45:49;26.20;99.90
2999;DHT22;1509;51.964;7.628;2023-07-13T11:48:29;26.50;99.90
2999;DHT22;1509;51.964;7.628;2023-07-13T11:51:04;27.10;99.90
2999;DHT22;1509;51.964;7.628;2023-07-13T11:53:40;27.30;99.90
2999;DHT22;1509;51.964;7.628;2023-07-13T11:56:06;28.10;99.90
2999;DHT22;1509;51.964;7.628;2023-07-13T11:58:32;28.50;99.90
2999;DHT22;1509;51.964;7.628;2023-07-13T12:01:00;28.60;99.90
2999;DHT22;1509;51.964;7.628;2023-07-13T12:03:28;27.80;99.90
2999;DHT22;1509;51.964;7.628;2023-07-13T12:06:27;27.40;99.90
2999;DHT22;1509;51.964;7.628;2023-07-13T12:08:56;27.70;99.90
2999;DHT22;1509;51.964;7.628;2023-07-13T12:11:23;27.30;99.90
2999;DHT22;1509;51.964;7.628;2023-07-13T12:13:49;27.10;99.90
2999;DHT22;1509;51.964;7.628;2023-07-13T12:16:22;26.20;99.90
2999;DHT22;1509;51.964;7.628;2023-07-13T12:18:52;25.30;99.90
2999;DHT22;1509;51.964;7.628;2023-07-13T12:21:19;24.80;99.90
2999;DHT22;1509;51.964;7.628;2023-07-13T12:23:47;24.30;99.90
2999;DHT22;1509;51.964;7.628;2023-07-13T12:26:15;23.60;99.90
2999;DHT22;1509;51.964;7.628;2023-07-13T12:28:52;23.30;99.90
2999;DHT22;1509;51.964;7.628;2023-07-13T12:31:42;22.50;99.90
2999;DHT22;1509;51.964;7.628;2023-07-13T12:34:13;21.20;99.90
2999;DHT22;1509;51.964;7.628;2023-07-13T12:36:49;19.50;99.90
2999;DHT22;1509;51.964;7.628;2023-07-13T12:39:36;18.50;99.90
2999;DHT22;1509;51.964;7.628;2023-07-13T12:44:45;18.00;99.90
2999;DHT22;1509;51.964;7.628;2023-07-13T12:47:14;18.20;99.90
2999;DHT22;1509;51.964;7.628;2023-07-13T12:49:43;19.10;99.90
2999;DHT22;1509;51.964;7.628;2023-07-13T12:52:19;20.20;99.90
2999;DHT22;1509;51.964;7.628;2023-07-13T12:55:03;20.80;99.90
2999;DHT22;1509;51.964;7.628;2023-07-13T12:57:28;20.90;99.90
2999;DHT22;1509;51.964;7.628;2023-07-13T12:59:55;20.70;99.90
2999;DHT22;1509;51.964;7.628;2023-07-13T13:02:32;20.30;99.90
2999;DHT22;1509;51.964;7.628;2023-07-13T13:05:00;18.70;99.90
2999;DHT22;1509;51.964;7.628;2023-07-13T13:07:26;17.70;99.90
2999;DHT22;1509;51.964;7.628;2023-07-13T13:09:52;17.30;99.90
2999;DHT22;1509;51.964;7.628;2023-07-13T13:12:19;17.10;99.90
2999;DHT22;1509;51.964;7.628;2023-07-13T13:14:45;17.00;99.90
2999;DHT22;1509;51.964;7.628;2023-07-13T13:17:29;17.10;99.90
2999;DHT22;1509;51.964;7.628;2023-07-13T13:19:56;17.40;99.90
2999;DHT22;1509;51.964;7.628;2023-07-13T13:22:22;17.50;99.90
2999;DHT22;1509;51.964;7.628;2023-07-13T13:24:48;17.50;99.90
2999;DHT22;1509;51.964;7.628;2023-07-13T13:27:18;17.70;99.90
2999;DHT22;1509;51.964;7.628;2023-07-13T13:29:45;17.70;99.90
2999;DHT22;1509;51.964;7.628;2023-07-13T13:32:14;17.90;99.90
2999;DHT22;1509;51.964;7.628;2023-07-13T13:34:40;18.10;99.90
2999;DHT22;1509;51.964;7.628;2023-07-13T13:37:18;17.90;99.90
2999;DHT22;1509;51.964;7.628;2023-07-13T13:39:45;17.80;99.90
2999;DHT22;1509;51.964;7.628;2023-07-13T13:42:11;17.90;99.90
2999;DHT22;1509;51.964;7.628;2023-07-13T13:44:36;17.80;99.90
2999;DHT22;1509;51.964;7.628;2023-07-13T13:47:07;17.90;99.90
2999;DHT22;1509;51.964;7.628;2023-07-13T13:49:35;17.90;99.90
2999;DHT22;1509;51.964;7.628;2023-07-13T13:52:01;17.90;99.90
2999;DHT22;1509;51.964;7.628;2023-07-13T13:54:27;18.00;99.90
2999;DHT22;1509;51.964;7.628;2023-07-13T13:56:53;18.00;99.90
2999;DHT22;1509;51.964;7.628;2023-07-13T13:59:19;18.00;99.90
2999;DHT22;1509;51.964;7.628;2023-07-13T14:01:47;18.10;99.90
2999;DHT22;1509;51.964;7.628;2023-07-13T14:04:21;17.90;99.90
2999;DHT22;1509;51.964;7.628;2023-07-13T14:06:47;17.90;99.90
2999;DHT22;1509;51.964;7.628;2023-07-13T14:09:18;17.70;99.90
2999;DHT22;1509;51.964;7.628;2023-07-13T14:11:45;17.70;99.90
2999;DHT22;1509;51.964;7.628;2023-07-13T14:14:17;17.50;99.90
2999;DHT22;1509;51.964;7.628;2023-07-13T14:16:44;17.40;99.90
2999;DHT22;1509;51.964;7.628;2023-07-13T14:19:13;17.10;99.90
2999;DHT22;1509;51.964;7.628;2023-07-13T14:21:39;16.90;99.90
2999;DHT22;1509;51.964;7.628;2023-07-13T14:24:05;16.80;99.90
2999;DHT22;1509;51.964;7.628;2023-07-13T14:26:36;16.80;99.90
2999;DHT22;1509;51.964;7.628;2023-07-13T14:29:05;16.80;99.90
2999;DHT22;1509;51.964;7.628;2023-07-13T14:31:37;16.90;99.90
2999;DHT22;1509;51.964;7.628;2023-07-13T14:34:02;16.80;99.90
2999;DHT22;1509;51.964;7.628;2023-07-13T14:36:31;16.90;99.90
2999;DHT22;1509;51.964;7.628;2023-07-13T14:39:05;17.00;99.90
2999;DHT22;1509;51.964;7.628;2023-07-13T14:41:36;17.10;99.90
2999;DHT22;1509;51.964;7.628;2023-07-13T14:44:16;17.10;99.90
2999;DHT22;1509;51.964;7.628;2023-07-13T14:46:44;17.30;99.90
2999;DHT22;1509;51.964;7.628;2023-07-13T14:49:21;17.50;99.90
2999;DHT22;1509;51.964;7.628;2023-07-13T14:51:49;17.90;99.90
2999;DHT22;1509;51.964;7.628;2023-07-13T14:54:14;18.30;99.90
2999;DHT22;1509;51.964;7.628;2023-07-13T14:56:40;18.50;99.90
2999;DHT22;1509;51.964;7.628;2023-07-13T14:59:05;18.90;99.90
2999;DHT22;1509;51.964;7.628;2023-07-13T15:01:36;18.90;99.90
2999;DHT22;1509;51.964;7.628;2023-07-13T15:04:02;19.10;99.90
2999;DHT22;1509;51.964;7.628;2023-07-13T15:06:28;19.30;99.90
2999;DHT22;1509;51.964;7.628;2023-07-13T15:08:54;19.50;99.90
2999;DHT22;1509;51.964;7.628;2023-07-13T15:11:21;19.70;99.90
2999;DHT22;1509;51.964;7.628;2023-07-13T15:13:47;20.00;99.90
2999;DHT22;1509;51.964;7.628;2023-07-13T15:16:21;20.00;99.90
2999;DHT22;1509;51.964;7.628;2023-07-13T15:18:49;20.00;99.90
2999;DHT22;1509;51.964;7.628;2023-07-13T15:21:20;20.10;99.90
2999;DHT22;1509;51.964;7.628;2023-07-13T15:23:49;20.30;99.90
2999;DHT22;1509;51.964;7.628;2023-07-13T15:26:16;20.60;99.90
2999;DHT22;1509;51.964;7.628;2023-07-13T15:28:43;20.70;99.90
2999;DHT22;1509;51.964;7.628;2023-07-13T15:31:21;20.90;99.90
2999;DHT22;1509;51.964;7.628;2023-07-13T15:33:49;21.00;99.90
2999;DHT22;1509;51.964;7.628;2023-07-13T15:36:16;21.10;99.90
2999;DHT22;1509;51.964;7.628;2023-07-13T15:38:43;21.00;99.90
2999;DHT22;1509;51.964;7.628;2023-07-13T15:41:21;20.90;99.90
2999;DHT22;1509;51.964;7.628;2023-07-13T15:43:53;21.00;99.90
2999;DHT22;1509;51.964;7.628;2023-07-13T15:46:22;21.00;99.90
2999;DHT22;1509;51.964;7.628;2023-07-13T15:48:49;21.10;99.90
2999;DHT22;1509;51.964;7.628;2023-07-13T15:53:45;21.00;99.90
2999;DHT22;1509;51.964;7.628;2023-07-13T15:56:20;20.90;99.90
2999;DHT22;1509;51.964;7.628;2023-07-13T15:58:47;20.90;99.90
2999;DHT22;1509;51.964;7.628;2023-07-13T16:01:13;20.90;99.90
2999;DHT22;1509;51.964;7.628;2023-07-13T16:03:40;21.10;99.90
2999;DHT22;1509;51.964;7.628;2023-07-13T16:06:13;21.00;99.90
2999;DHT22;1509;51.964;7.628;2023-07-13T16:08:40;20.80;99.90
2999;DHT22;1509;51.964;7.628;2023-07-13T16:11:32;20.70;99.90
2999;DHT22;1509;51.964;7.628;2023-07-13T16:13:54;20.80;99.90
2999;DHT22;1509;51.964;7.628;2023-07-13T16:16:29;20.90;99.90
2999;DHT22;1509;51.964;7.628;2023-07-13T16:19:00;20.90;99.90
2999;DHT22;1509;51.964;7.628;2023-07-13T16:21:27;20.90;99.90
2999;DHT22;1509;51.964;7.628;2023-07-13T16:23:55;20.90;99.90
2999;DHT22;1509;51.964;7.628;2023-07-13T16:26:36;20.90;99.90
2999;DHT22;1509;51.964;7.628;2023-07-13T16:29:25;20.80;99.90
2999;DHT22;1509;51.964;7.628;2023-07-13T16:34:31;20.90;99.90
2999;DHT22;1509;51.964;7.628;2023-07-13T16:36:57;20.70;99.90
2999;DHT22;1509;51.964;7.628;2023-07-13T16:39:23;20.60;99.90
2999;DHT22;1509;51.964;7.628;2023-07-13T16:41:53;20.50;99.90
2999;DHT22;1509;51.964;7.628;2023-07-13T16:44:20;20.30;99.90
2999;DHT22;1509;51.964;7.628;2023-07-13T16:46:49;20.20;99.90
2999;DHT22;1509;51.964;7.628;2023-07-13T16:49:22;19.90;99.90
2999;DHT22;1509;51.964;7.628;2023-07-13T16:51:50;19.60;99.90
2999;DHT22;1509;51.964;7.628;2023-07-13T16:54:16;19.20;99.90
2999;DHT22;1509;51.964;7.628;2023-07-13T16:56:46;18.70;99.90